Time;durP1;ratioP1;P1;durP2;ratioP2;P2;SDS_P1;SDS_P2;PMS_P1;PMS_P2;Temp;Humidity;BMP_temperature;BMP_pressure;BME280_temperature;BME280_humidity;BME280_pressure;Samples;Min_cycle;Max_cycle;Signal;HPM_P1;HPM_P2
2023/05/12 00:02:25;;;;;;;10.27;7.03;;;11.40;93.90;;;;;;5000764;28;20045;-81
2023/05/12 00:04:52;;;;;;;11.10;7.72;;;11.40;93.90;;;;;;4981305;28;20049;-82
2023/05/12 00:07:17;;;;;;;11.43;7.60;;;11.40;93.90;;;;;;4996286;28;20046;-85
2023/05/12 00:09:43;;;;;;;10.07;6.10;;;11.40;93.90;;;;;;4997455;28;20091;-82
2023/05/12 00:12:09;;;;;;;7.13;5.50;;;11.40;94.00;;;;;;4981368;28;20052;-84
2023/05/12 00:14:35;;;;;;;12.35;7.22;;;11.40;94.00;;;;;;4997413;28;20128;-83
2023/05/12 00:17:05;;;;;;;6.32;4.80;;;11.40;93.90;;;;;;4987136;28;20049;-82
2023/05/12 00:19:32;;;;;;;7.97;5.82;;;11.40;94.00;;;;;;5016129;28;20054;-83
2023/05/12 00:21:58;;;;;;;6.88;4.93;;;11.40;94.00;;;;;;4996527;28;20501;-82
2023/05/12 00:24:24;;;;;;;5.60;3.80;;;11.40;94.10;;;;;;4996915;28;20123;-81
2023/05/12 00:26:50;;;;;;;7.43;3.72;;;11.40;94.00;;;;;;5013454;28;20490;-82
2023/05/12 00:29:15;;;;;;;6.05;3.25;;;11.40;94.00;;;;;;4997346;28;20034;-82
2023/05/12 00:31:41;;;;;;;4.70;3.30;;;11.40;93.90;;;;;;4980708;28;20038;-83
2023/05/12 00:34:07;;;;;;;5.93;2.75;;;11.30;93.90;;;;;;4980746;28;20038;-83
2023/05/12 00:36:32;;;;;;;4.22;3.17;;;11.40;93.90;;;;;;4996896;28;20397;-84
2023/05/12 00:38:58;;;;;;;7.43;3.33;;;11.30;93.90;;;;;;4964521;28;20038;-82
2023/05/12 00:41:24;;;;;;;5.68;3.10;;;11.40;94.00;;;;;;5012878;28;20494;-82
2023/05/12 00:43:51;;;;;;;5.32;2.90;;;11.40;94.00;;;;;;4964221;28;20044;-83
2023/05/12 00:46:17;;;;;;;5.82;4.25;;;11.50;94.10;;;;;;4996561;28;20406;-85
2023/05/12 00:48:44;;;;;;;5.72;3.72;;;11.40;93.90;;;;;;5012583;28;20123;-81
2023/05/12 00:51:11;;;;;;;9.90;4.88;;;11.40;93.70;;;;;;5013018;28;20038;-80
2023/05/12 00:53:37;;;;;;;8.60;4.50;;;11.40;93.90;;;;;;5012653;28;20061;-84
2023/05/12 00:56:03;;;;;;;9.50;5.13;;;11.40;94.00;;;;;;4995880;28;20376;-81
2023/05/12 00:58:28;;;;;;;8.48;4.82;;;11.40;94.00;;;;;;4963835;28;20486;-82
2023/05/12 01:00:55;;;;;;;10.23;5.32;;;11.40;94.20;;;;;;4979958;28;20038;-83
2023/05/12 01:03:21;;;;;;;9.77;5.88;;;11.40;94.10;;;;;;5012405;28;20156;-82
2023/05/12 01:06:09;;;;;;;7.10;4.82;;;11.30;94.10;;;;;;5012602;28;20077;-83
2023/05/12 01:08:40;;;;;;;14.90;7.40;;;11.40;94.50;;;;;;4996653;28;20052;-83
2023/05/12 01:11:06;;;;;;;13.13;6.53;;;11.40;94.30;;;;;;5012489;28;20042;-84
2023/05/12 01:13:31;;;;;;;11.02;6.70;;;11.40;94.30;;;;;;4996234;28;20046;-81
2023/05/12 01:16:00;;;;;;;13.07;7.72;;;11.40;94.50;;;;;;4964266;28;20048;-82
2023/05/12 01:18:27;;;;;;;12.90;7.53;;;11.40;94.40;;;;;;4998040;28;20500;-82
2023/05/12 01:20:54;;;;;;;14.88;7.60;;;11.40;94.40;;;;;;4999512;28;20054;-82
2023/05/12 01:23:26;;;;;;;16.33;8.95;;;11.40;94.50;;;;;;4999744;28;20101;-81
2023/05/12 01:25:53;;;;;;;15.30;9.32;;;11.40;94.50;;;;;;5016697;28;20060;-81
2023/05/12 01:28:20;;;;;;;14.02;9.27;;;11.40;94.40;;;;;;4999995;28;20497;-83
2023/05/12 01:30:47;;;;;;;14.88;8.77;;;11.40;94.60;;;;;;4999730;28;20099;-83
2023/05/12 01:33:13;;;;;;;15.25;9.40;;;11.50;94.60;;;;;;5016550;28;20371;-81
2023/05/12 01:35:39;;;;;;;15.98;10.00;;;11.40;94.50;;;;;;4983609;28;20045;-81
2023/05/12 01:38:04;;;;;;;14.48;8.75;;;11.40;94.40;;;;;;4999716;28;20445;-82
2023/05/12 01:40:30;;;;;;;17.80;10.55;;;11.40;94.50;;;;;;4983753;28;20100;-83
2023/05/12 01:42:56;;;;;;;17.30;10.63;;;11.40;94.40;;;;;;4989626;28;20066;-82
2023/05/12 01:45:21;;;;;;;14.98;9.82;;;11.40;94.40;;;;;;4964105;28;20044;-82
2023/05/12 01:47:47;;;;;;;16.90;11.63;;;11.40;94.50;;;;;;4963865;28;20402;-82
2023/05/12 01:50:13;;;;;;;14.85;9.73;;;11.40;94.60;;;;;;4996210;28;20038;-80
2023/05/12 01:52:38;;;;;;;23.38;11.95;;;11.40;94.50;;;;;;4963395;28;20046;-81
2023/05/12 01:55:04;;;;;;;20.02;11.10;;;11.40;94.40;;;;;;4979382;28;20042;-81
2023/05/12 01:57:31;;;;;;;21.33;12.88;;;11.40;94.40;;;;;;4963909;28;20049;-84
2023/05/12 01:59:57;;;;;;;19.38;12.82;;;11.40;94.40;;;;;;4960728;28;20044;-82
2023/05/12 02:02:22;;;;;;;23.45;13.45;;;11.40;94.30;;;;;;4963673;28;20125;-81
2023/05/12 02:04:48;;;;;;;25.08;14.73;;;11.40;94.30;;;;;;4947772;28;20394;-80
2023/05/12 02:07:14;;;;;;;23.02;14.90;;;11.40;94.40;;;;;;4979768;28;20073;-79
2023/05/12 02:09:40;;;;;;;27.50;14.90;;;11.40;94.30;;;;;;4980081;28;20043;-81
2023/05/12 02:12:06;;;;;;;23.63;14.55;;;11.40;94.40;;;;;;4963649;28;20482;-82
2023/05/12 02:14:33;;;;;;;25.10;15.07;;;11.40;94.50;;;;;;4964046;28;20138;-83
2023/05/12 02:16:58;;;;;;;26.77;14.88;;;11.40;94.50;;;;;;4980102;28;20386;-84
2023/05/12 02:19:24;;;;;;;22.20;13.85;;;11.40;94.40;;;;;;4979411;28;20049;-80
2023/05/12 02:21:50;;;;;;;37.35;18.98;;;11.40;94.60;;;;;;4962981;28;20058;-83
2023/05/12 02:24:15;;;;;;;24.63;15.15;;;11.40;94.50;;;;;;4979362;28;20046;-84
2023/05/12 02:26:41;;;;;;;28.90;16.45;;;11.50;94.50;;;;;;4995456;28;20494;-82
2023/05/12 02:29:07;;;;;;;26.17;16.25;;;11.40;94.50;;;;;;4995511;28;20064;-82
2023/05/12 02:31:33;;;;;;;25.75;14.02;;;11.40;94.50;;;;;;4978128;28;20042;-83
2023/05/12 02:34:00;;;;;;;26.08;16.38;;;11.40;94.60;;;;;;4995551;28;20046;-83
2023/05/12 02:36:25;;;;;;;32.55;17.15;;;11.50;94.60;;;;;;4947517;28;20057;-81
2023/05/12 02:38:51;;;;;;;28.45;15.93;;;11.40;94.60;;;;;;4979191;28;20483;-82
2023/05/12 02:41:17;;;;;;;35.65;19.45;;;11.50;94.70;;;;;;4963166;28;20077;-81
2023/05/12 02:43:42;;;;;;;31.45;18.40;;;11.50;94.70;;;;;;4978923;28;20043;-83
2023/05/12 02:46:08;;;;;;;34.90;19.45;;;11.50;94.70;;;;;;4979147;28;20044;-83
2023/05/12 02:48:34;;;;;;;30.25;17.38;;;11.50;94.70;;;;;;4995288;28;20044;-81
2023/05/12 02:51:00;;;;;;;31.95;18.83;;;11.50;94.80;;;;;;4979604;28;20494;-81
2023/05/12 02:53:26;;;;;;;37.53;21.40;;;11.50;94.80;;;;;;4989769;28;20124;-83
2023/05/12 02:55:52;;;;;;;37.60;19.33;;;11.50;94.80;;;;;;5034640;28;20410;-82
2023/05/12 02:58:18;;;;;;;35.95;18.42;;;11.50;94.90;;;;;;5034427;28;20051;-82
2023/05/12 03:00:43;;;;;;;35.45;21.50;;;11.50;95.00;;;;;;5018003;28;20046;-82
2023/05/12 03:03:09;;;;;;;33.72;19.27;;;11.50;94.90;;;;;;5017872;28;20087;-81
2023/05/12 03:05:35;;;;;;;38.40;22.08;;;11.50;94.90;;;;;;5002648;28;20041;-83
2023/05/12 03:08:01;;;;;;;37.42;22.80;;;11.60;94.90;;;;;;4997945;28;20092;-81
2023/05/12 03:10:26;;;;;;;43.05;23.40;;;11.50;94.90;;;;;;4982051;28;20041;-83
2023/05/12 03:12:52;;;;;;;38.47;22.67;;;11.50;95.00;;;;;;5014835;28;20454;-82
2023/05/12 03:15:18;;;;;;;40.78;21.58;;;11.50;95.00;;;;;;4997792;28;20425;-81
2023/05/12 03:17:43;;;;;;;50.53;25.00;;;11.50;95.20;;;;;;4997993;28;20104;-83
2023/05/12 03:20:10;;;;;;;41.83;23.75;;;11.50;95.10;;;;;;4981404;28;20478;-81
2023/05/12 03:22:35;;;;;;;35.10;20.80;;;11.50;95.20;;;;;;4997049;28;20117;-82
2023/05/12 03:25:03;;;;;;;33.97;21.65;;;11.50;95.20;;;;;;4998010;28;20121;-82
2023/05/12 03:27:33;;;;;;;32.50;19.70;;;11.50;95.30;;;;;;4998066;28;20041;-83
2023/05/12 03:29:59;;;;;;;47.42;25.27;;;11.50;95.20;;;;;;5014143;28;20092;-83
2023/05/12 03:32:27;;;;;;;49.03;25.80;;;11.50;95.30;;;;;;5013819;28;20046;-82
2023/05/12 03:34:52;;;;;;;54.30;27.80;;;11.50;95.30;;;;;;4997481;28;20049;-82
2023/05/12 03:37:18;;;;;;;42.60;22.67;;;11.50;95.30;;;;;;4980584;28;20119;-83
2023/05/12 03:39:44;;;;;;;45.53;22.58;;;11.60;95.30;;;;;;4980824;28;20431;-83
2023/05/12 03:42:13;;;;;;;42.33;22.30;;;11.60;95.30;;;;;;5012470;28;20045;-82
2023/05/12 03:44:39;;;;;;;57.35;30.20;;;11.60;95.40;;;;;;5013084;28;20045;-82
2023/05/12 03:47:05;;;;;;;50.05;24.92;;;11.70;95.30;;;;;;5012844;28;20042;-81
2023/05/12 03:49:31;;;;;;;47.53;27.77;;;11.70;95.30;;;;;;4964542;28;20114;-83
2023/05/12 03:51:56;;;;;;;52.90;27.73;;;11.70;95.40;;;;;;4980707;28;20104;-84
2023/05/12 03:54:22;;;;;;;48.22;25.45;;;11.70;95.30;;;;;;4997581;28;20034;-81
2023/05/12 03:56:48;;;;;;;40.33;21.88;;;11.70;95.30;;;;;;4996838;28;20041;-83
2023/05/12 03:59:13;;;;;;;55.00;29.63;;;11.70;95.30;;;;;;4981120;28;20116;-82
2023/05/12 04:01:39;;;;;;;52.22;28.70;;;11.70;95.30;;;;;;4997024;28;20039;-80
2023/05/12 04:04:05;;;;;;;46.45;25.83;;;11.70;95.30;;;;;;4996573;28;20574;-84
2023/05/12 04:06:31;;;;;;;64.03;31.77;;;11.80;95.30;;;;;;4996809;28;20038;-82
2023/05/12 04:08:56;;;;;;;56.25;29.92;;;11.70;95.20;;;;;;4980234;28;20451;-82
2023/05/12 04:11:22;;;;;;;66.30;33.20;;;11.80;95.30;;;;;;4967069;28;20057;-81
2023/05/12 04:13:48;;;;;;;59.25;30.95;;;11.80;95.30;;;;;;4993646;28;20038;-81
2023/05/12 04:16:14;;;;;;;51.15;26.70;;;11.80;95.20;;;;;;4961581;28;20112;-81
2023/05/12 04:18:39;;;;;;;53.08;24.80;;;11.80;95.30;;;;;;4977755;28;20483;-81
2023/05/12 04:21:06;;;;;;;65.00;33.00;;;11.90;95.30;;;;;;4993172;28;20070;-82
2023/05/12 04:23:32;;;;;;;47.83;26.08;;;11.80;95.20;;;;;;4977841;28;20054;-81
2023/05/12 04:25:58;;;;;;;56.28;29.30;;;11.90;95.30;;;;;;4977003;28;20379;-83
2023/05/12 04:28:24;;;;;;;52.83;28.75;;;11.80;95.30;;;;;;4961340;28;20070;-82
2023/05/12 04:30:49;;;;;;;53.00;27.50;;;11.90;95.20;;;;;;4960924;28;20089;-83
2023/05/12 04:33:15;;;;;;;51.85;28.60;;;11.90;95.20;;;;;;4977409;28;20050;-82
2023/05/12 04:35:41;;;;;;;60.97;30.85;;;11.90;95.30;;;;;;4961588;28;20046;-82
2023/05/12 04:38:07;;;;;;;56.15;28.05;;;11.90;95.20;;;;;;4977138;28;20053;-83
2023/05/12 04:40:32;;;;;;;61.63;32.08;;;12.00;95.30;;;;;;4993300;28;20483;-82
2023/05/12 04:42:58;;;;;;;54.40;28.95;;;12.00;95.40;;;;;;4961064;28;20100;-81
2023/05/12 04:45:24;;;;;;;51.88;27.33;;;12.00;95.40;;;;;;4944859;28;20042;-84
2023/05/12 04:47:49;;;;;;;60.30;30.42;;;12.00;95.40;;;;;;4960940;28;20127;-80
2023/05/12 04:50:15;;;;;;;48.42;25.52;;;12.00;95.40;;;;;;4995525;28;20042;-78
2023/05/12 04:52:41;;;;;;;56.13;28.20;;;12.00;95.30;;;;;;5012753;28;20046;-79
2023/05/12 04:55:07;;;;;;;53.40;28.15;;;12.10;95.30;;;;;;5015889;28;20494;-82
2023/05/12 04:57:33;;;;;;;47.70;25.88;;;12.10;95.30;;;;;;5015666;28;20077;-80
2023/05/12 04:59:58;;;;;;;41.22;24.63;;;12.10;95.40;;;;;;4983665;28;20084;-85
2023/05/12 05:02:27;;;;;;;57.17;29.80;;;12.10;95.50;;;;;;5000427;28;20044;-82
2023/05/12 05:04:53;;;;;;;64.93;31.40;;;12.20;95.40;;;;;;4968146;28;20041;-80
2023/05/12 05:07:19;;;;;;;50.13;27.50;;;12.20;95.40;;;;;;5000761;28;20037;-83
2023/05/12 05:09:45;;;;;;;58.35;31.60;;;12.30;95.40;;;;;;4984167;28;20544;-83
2023/05/12 05:12:10;;;;;;;60.55;31.75;;;12.20;95.60;;;;;;5000180;28;20080;-81
2023/05/12 05:14:36;;;;;;;47.60;25.73;;;12.30;95.70;;;;;;4984092;28;20041;-81
2023/05/12 05:17:02;;;;;;;66.63;33.05;;;12.30;95.70;;;;;;4968006;28;20045;-83
2023/05/12 05:19:28;;;;;;;50.80;27.40;;;12.30;95.60;;;;;;4999816;28;20037;-82
2023/05/12 05:22:39;;;;;;;70.63;32.45;;;12.30;95.70;;;;;;5018351;28;20145;-83
2023/05/12 05:25:26;;;;;;;46.05;26.15;;;12.40;95.70;;;;;;4991208;28;20120;-83
2023/05/12 05:27:52;;;;;;;62.22;30.13;;;12.40;95.80;;;;;;5000125;28;20084;-85
2023/05/12 05:30:18;;;;;;;65.57;33.38;;;12.50;95.90;;;;;;4983827;28;20845;-84
2023/05/12 05:32:43;;;;;;;62.72;30.85;;;12.50;95.70;;;;;;4984042;28;20042;-85
2023/05/12 05:35:09;;;;;;;64.35;32.10;;;12.50;95.80;;;;;;4985289;28;20033;-84
2023/05/12 05:37:35;;;;;;;51.30;28.05;;;12.50;95.90;;;;;;4968605;28;20053;-83
2023/05/12 05:40:01;;;;;;;61.63;30.77;;;12.50;95.80;;;;;;4967704;28;20038;-82
2023/05/12 05:42:27;;;;;;;60.55;33.00;;;12.50;95.80;;;;;;5015972;28;20589;-84
2023/05/12 05:44:52;;;;;;;60.20;31.13;;;12.60;95.70;;;;;;4999598;28;20429;-84
2023/05/12 05:47:18;;;;;;;57.22;30.30;;;12.60;95.80;;;;;;4999711;28;20172;-84
2023/05/12 05:49:44;;;;;;;61.63;33.20;;;12.60;95.70;;;;;;4983248;28;20049;-85
2023/05/12 05:52:09;;;;;;;45.55;26.38;;;12.70;95.60;;;;;;4983317;28;20049;-84
2023/05/12 05:54:35;;;;;;;53.28;28.83;;;12.70;95.50;;;;;;4999362;28;20042;-85
2023/05/12 05:57:01;;;;;;;47.42;26.73;;;12.70;95.70;;;;;;5002556;28;20045;-83
2023/05/12 05:59:28;;;;;;;36.88;21.70;;;12.70;95.60;;;;;;5009403;28;20046;-84
2023/05/12 06:01:53;;;;;;;53.65;29.20;;;12.80;95.60;;;;;;5011908;28;20041;-82
2023/05/12 06:04:19;;;;;;;55.47;30.30;;;12.80;95.60;;;;;;5002135;28;20044;-82
2023/05/12 06:06:45;;;;;;;52.88;28.65;;;12.80;95.60;;;;;;5002622;28;20457;-80
2023/05/12 06:09:11;;;;;;;52.75;29.30;;;12.90;95.50;;;;;;5035423;28;20048;-82
2023/05/12 06:11:38;;;;;;;39.97;24.27;;;13.00;95.40;;;;;;5034916;28;20116;-81
2023/05/12 06:14:04;;;;;;;51.22;29.60;;;13.00;95.40;;;;;;5018526;28;20045;-82
2023/05/12 06:16:29;;;;;;;50.42;29.65;;;13.00;95.50;;;;;;5034997;28;20497;-81
2023/05/12 06:18:55;;;;;;;54.83;28.27;;;13.10;95.40;;;;;;5002700;28;20087;-81
2023/05/12 06:21:21;;;;;;;48.95;26.75;;;13.10;95.40;;;;;;5018495;28;20037;-81
2023/05/12 06:23:47;;;;;;;54.17;28.88;;;13.20;95.40;;;;;;5001813;28;20037;-81
2023/05/12 06:26:13;;;;;;;53.05;28.52;;;13.30;95.40;;;;;;5018322;28;20034;-80
2023/05/12 06:28:38;;;;;;;51.95;27.00;;;13.30;95.30;;;;;;5001764;28;20037;-81
2023/05/12 06:31:07;;;;;;;54.17;30.02;;;13.30;95.30;;;;;;5002356;28;20038;-80
2023/05/12 06:33:33;;;;;;;46.47;26.63;;;13.40;95.20;;;;;;5018206;28;20041;-81
2023/05/12 06:35:59;;;;;;;39.28;24.13;;;13.40;95.20;;;;;;5034244;28;20501;-80
2023/05/12 06:38:25;;;;;;;44.33;26.58;;;13.50;95.20;;;;;;5018384;28;20047;-81
2023/05/12 06:40:50;;;;;;;44.00;26.00;;;13.50;95.10;;;;;;5001816;28;20037;-81
2023/05/12 06:43:16;;;;;;;43.42;27.42;;;13.50;95.10;;;;;;5018165;28;20072;-82
2023/05/12 06:45:43;;;;;;;40.95;25.38;;;13.50;95.00;;;;;;5034436;28;20041;-82
2023/05/12 06:48:09;;;;;;;46.08;27.48;;;13.50;95.00;;;;;;5001784;28;20037;-81
2023/05/12 06:50:35;;;;;;;44.10;27.60;;;13.50;95.00;;;;;;5018051;28;20033;-82
2023/05/12 06:53:01;;;;;;;44.53;24.98;;;13.50;94.90;;;;;;5002261;28;20077;-81
2023/05/12 06:55:27;;;;;;;48.17;26.83;;;13.60;94.90;;;;;;5001266;28;20493;-81
2023/05/12 06:57:54;;;;;;;39.20;24.50;;;13.60;95.00;;;;;;5017423;28;20397;-81
2023/05/12 07:00:23;;;;;;;45.28;27.77;;;13.60;94.90;;;;;;5001377;28;20080;-81
2023/05/12 07:02:49;;;;;;;52.90;27.85;;;13.60;94.80;;;;;;5017079;28;20038;-81
2023/05/12 07:05:15;;;;;;;45.05;26.52;;;13.70;94.70;;;;;;5033634;28;20057;-81
2023/05/12 07:07:40;;;;;;;42.45;27.08;;;13.80;94.70;;;;;;5033669;28;20044;-81
2023/05/12 07:10:07;;;;;;;39.67;27.80;;;13.90;94.80;;;;;;5033898;28;20120;-83
2023/05/12 07:12:33;;;;;;;42.08;27.98;;;13.90;94.80;;;;;;5033441;28;20052;-80
2023/05/12 07:14:59;;;;;;;40.78;26.13;;;14.00;94.70;;;;;;5000617;28;20041;-85
2023/05/12 07:17:24;;;;;;;35.65;23.83;;;14.00;94.80;;;;;;5000720;28;20044;-82
2023/05/12 07:19:51;;;;;;;39.50;22.60;;;14.10;94.80;;;;;;5016890;28;20042;-82
2023/05/12 07:22:16;;;;;;;39.17;25.20;;;14.20;94.80;;;;;;5016762;28;20054;-81
2023/05/12 07:24:43;;;;;;;38.88;24.70;;;14.20;94.70;;;;;;5016900;28;20037;-81
2023/05/12 07:27:08;;;;;;;34.53;25.58;;;14.30;94.70;;;;;;5017320;28;20043;-83
2023/05/12 07:29:34;;;;;;;35.28;23.15;;;14.40;94.60;;;;;;5017040;28;20397;-81
2023/05/12 07:32:00;;;;;;;35.95;21.48;;;14.50;94.60;;;;;;5017366;28;20041;-81
2023/05/12 07:34:25;;;;;;;32.40;22.02;;;14.50;94.50;;;;;;5017161;28;20076;-80
2023/05/12 07:36:51;;;;;;;36.22;25.02;;;14.50;94.40;;;;;;5033309;28;20043;-80
2023/05/12 07:39:22;;;;;;;32.80;22.88;;;14.60;94.30;;;;;;5016910;28;20048;-82
2023/05/12 07:41:52;;;;;;;30.02;20.67;;;14.60;94.20;;;;;;5032752;28;20037;-82
2023/05/12 07:44:18;;;;;;;35.88;23.67;;;14.70;94.20;;;;;;5032522;28;20482;-80
2023/05/12 07:46:44;;;;;;;27.38;20.90;;;14.70;94.00;;;;;;5032706;28;20044;-81
2023/05/12 07:49:10;;;;;;;29.67;21.77;;;14.80;93.90;;;;;;4999911;28;20073;-81
2023/05/12 07:51:36;;;;;;;32.97;23.20;;;14.80;93.70;;;;;;4999960;28;20099;-81
2023/05/12 07:54:01;;;;;;;31.65;22.67;;;14.80;93.50;;;;;;5016782;28;20126;-81
2023/05/12 07:56:27;;;;;;;30.60;23.00;;;14.90;93.40;;;;;;5016555;28;20448;-80
2023/05/12 07:58:53;;;;;;;30.23;22.60;;;14.90;93.30;;;;;;4999941;28;20621;-80
2023/05/12 08:01:19;;;;;;;30.88;22.98;;;15.00;93.20;;;;;;5016507;28;20045;-81
2023/05/12 08:03:45;;;;;;;27.92;19.25;;;15.00;93.10;;;;;;5016083;28;20103;-80
2023/05/12 08:06:10;;;;;;;30.77;22.02;;;15.00;93.00;;;;;;4999969;28;20041;-80
2023/05/12 08:08:36;;;;;;;31.55;22.40;;;15.00;92.90;;;;;;5032556;28;20042;-81
2023/05/12 08:11:02;;;;;;;33.60;22.58;;;15.10;92.90;;;;;;5016308;28;20041;-81
2023/05/12 08:13:27;;;;;;;31.85;23.92;;;15.20;92.90;;;;;;5032344;28;20091;-81
2023/05/12 08:15:53;;;;;;;27.52;21.50;;;15.20;92.90;;;;;;5016246;28;20132;-81
2023/05/12 08:18:19;;;;;;;30.83;24.27;;;15.20;92.80;;;;;;5033066;28;20513;-81
2023/05/12 08:20:47;;;;;;;35.80;26.40;;;15.30;92.70;;;;;;5032616;28;20053;-80
2023/05/12 08:23:14;;;;;;;29.40;24.27;;;15.30;92.70;;;;;;5032151;28;20085;-81
2023/05/12 08:25:43;;;;;;;35.08;24.48;;;15.40;92.70;;;;;;5016148;28;20033;-80
2023/05/12 08:28:09;;;;;;;36.92;25.75;;;15.40;92.70;;;;;;5032384;28;20041;-80
2023/05/12 08:30:36;;;;;;;34.75;24.88;;;15.40;92.70;;;;;;5000639;28;20543;-80
2023/05/12 08:33:02;;;;;;;35.22;25.45;;;15.50;92.70;;;;;;5015801;28;20045;-80
2023/05/12 08:35:29;;;;;;;34.50;26.20;;;15.50;92.50;;;;;;4999710;28;20140;-80
2023/05/12 08:37:56;;;;;;;36.80;26.40;;;15.50;92.40;;;;;;5032597;28;20045;-81
2023/05/12 08:40:23;;;;;;;35.15;25.90;;;15.50;92.40;;;;;;5032424;28;20041;-81
2023/05/12 08:43:14;;;;;;;34.72;25.17;;;15.60;92.30;;;;;;5015537;28;20046;-81
2023/05/12 08:45:40;;;;;;;33.47;24.02;;;15.70;92.30;;;;;;5015621;28;20566;-81
2023/05/12 08:48:09;;;;;;;29.75;24.15;;;15.90;92.30;;;;;;5015592;28;20042;-80
2023/05/12 08:50:37;;;;;;;29.90;25.20;;;16.00;92.00;;;;;;5032046;28;20038;-80
2023/05/12 08:53:06;;;;;;;38.20;23.80;;;16.10;91.90;;;;;;5015567;28;20053;-81
2023/05/12 08:55:33;;;;;;;30.48;22.88;;;16.20;91.70;;;;;;5015954;28;20048;-81
2023/05/12 08:58:01;;;;;;;27.52;23.70;;;16.50;91.60;;;;;;5031862;28;20048;-80
2023/05/12 09:00:29;;;;;;;32.58;23.88;;;16.60;91.40;;;;;;5031992;28;20176;-79
2023/05/12 09:02:58;;;;;;;29.80;23.10;;;16.80;91.10;;;;;;5031738;28;20571;-80
2023/05/12 09:05:26;;;;;;;28.98;22.90;;;17.10;90.80;;;;;;5016106;28;20112;-80
2023/05/12 09:07:54;;;;;;;27.20;23.20;;;17.30;90.50;;;;;;5031636;28;20493;-81
2023/05/12 09:10:21;;;;;;;25.45;21.27;;;17.50;90.20;;;;;;5032033;28;20042;-80
2023/05/12 09:12:50;;;;;;;27.90;21.50;;;17.80;89.90;;;;;;5015527;28;20060;-81
2023/05/12 09:15:22;;;;;;;23.77;19.20;;;17.90;89.40;;;;;;5031888;28;20049;-81
2023/05/12 09:17:47;;;;;;;25.60;21.52;;;18.00;88.60;;;;;;5031920;28;20045;-82
2023/05/12 09:20:15;;;;;;;25.33;20.45;;;18.00;88.50;;;;;;5031717;28;20088;-79
2023/05/12 09:22:40;;;;;;;24.95;21.70;;;18.10;87.60;;;;;;5014887;28;20045;-80
2023/05/12 09:25:20;;;;;;;23.63;20.92;;;18.30;87.50;;;;;;5031855;28;20049;-81
2023/05/12 09:27:55;;;;;;;25.95;19.55;;;18.40;87.20;;;;;;5026691;28;20453;-80
2023/05/12 09:30:34;;;;;;;27.38;21.50;;;18.50;86.70;;;;;;4993944;28;20042;-80
2023/05/12 09:33:12;;;;;;;25.30;21.60;;;18.70;86.50;;;;;;4992266;28;20517;-80
2023/05/12 09:35:43;;;;;;;25.65;22.80;;;18.80;86.10;;;;;;4976901;28;20081;-80
2023/05/12 09:38:10;;;;;;;23.33;19.95;;;18.90;85.50;;;;;;4992249;28;20049;-80
2023/05/12 09:40:36;;;;;;;24.30;21.83;;;19.10;85.60;;;;;;4979711;28;20050;-80
2023/05/12 09:43:06;;;;;;;22.58;19.65;;;19.20;85.20;;;;;;4979790;28;20097;-80
2023/05/12 09:45:36;;;;;;;25.15;22.27;;;19.30;83.70;;;;;;4995938;28;20046;-82
2023/05/12 09:48:12;;;;;;;22.80;20.35;;;19.40;83.80;;;;;;4979744;28;20035;-80
2023/05/12 09:50:46;;;;;;;22.40;18.42;;;19.50;83.30;;;;;;4995904;28;20513;-80
2023/05/12 09:53:13;;;;;;;23.17;20.70;;;19.70;82.80;;;;;;4995975;28;20145;-80
2023/05/12 09:55:41;;;;;;;24.52;21.42;;;19.90;82.50;;;;;;4995652;28;20057;-80
2023/05/12 09:58:09;;;;;;;24.85;22.25;;;20.10;82.20;;;;;;4979883;28;20078;-80
2023/05/12 10:00:37;;;;;;;23.85;20.35;;;20.30;82.20;;;;;;4995512;28;20050;-80
2023/05/12 10:03:20;;;;;;;23.92;21.20;;;20.50;81.80;;;;;;4979666;28;20100;-80
2023/05/12 10:05:55;;;;;;;21.88;19.02;;;20.60;81.60;;;;;;4980087;28;20467;-85
2023/05/12 10:08:51;;;;;;;23.42;19.98;;;20.70;81.80;;;;;;4995846;28;20046;-79
2023/05/12 10:11:18;;;;;;;21.88;17.95;;;20.70;80.40;;;;;;4994556;28;20050;-80
2023/05/12 10:13:45;;;;;;;19.27;17.33;;;20.90;80.70;;;;;;4979552;28;20558;-81
2023/05/12 10:16:12;;;;;;;19.48;17.42;;;21.00;79.80;;;;;;4963258;28;20043;-81
2023/05/12 10:18:41;;;;;;;20.25;17.98;;;21.20;79.60;;;;;;4979134;28;20570;-80
2023/05/12 10:21:10;;;;;;;17.02;15.25;;;21.40;79.40;;;;;;4995559;28;20042;-80
2023/05/12 10:23:38;;;;;;;15.00;13.23;;;21.60;78.50;;;;;;4995131;28;20061;-80
2023/05/12 10:26:05;;;;;;;14.30;12.90;;;21.80;78.40;;;;;;4963524;28;20086;-81
2023/05/12 10:28:31;;;;;;;14.10;12.80;;;22.00;77.40;;;;;;4980130;28;20101;-80
2023/05/12 10:30:57;;;;;;;14.48;13.02;;;22.10;77.10;;;;;;4980112;28;20104;-80
2023/05/12 10:33:23;;;;;;;15.35;13.43;;;22.00;75.80;;;;;;4963858;28;20108;-79
2023/05/12 10:35:51;;;;;;;15.98;14.48;;;22.20;75.80;;;;;;4996814;28;20048;-80
2023/05/12 10:38:18;;;;;;;15.02;13.43;;;22.30;74.90;;;;;;5002857;28;20046;-79
2023/05/12 10:40:51;;;;;;;16.33;14.63;;;22.50;74.80;;;;;;4988521;28;20049;-79
2023/05/12 10:43:25;;;;;;;18.60;16.80;;;22.60;74.00;;;;;;5008157;28;20068;-78
2023/05/12 10:46:20;;;;;;;17.35;15.35;;;22.70;74.20;;;;;;5000287;28;20034;-79
2023/05/12 10:48:58;;;;;;;15.82;13.13;;;22.80;73.90;;;;;;5014631;28;20081;-79
2023/05/12 10:51:27;;;;;;;13.30;12.00;;;22.90;73.70;;;;;;5013894;28;20034;-79
2023/05/12 10:54:03;;;;;;;13.38;11.88;;;23.00;72.80;;;;;;4998682;28;20129;-79
2023/05/12 10:56:41;;;;;;;12.23;10.70;;;23.10;72.40;;;;;;4998478;28;20556;-80
2023/05/12 10:59:13;;;;;;;11.13;10.02;;;23.20;72.10;;;;;;5014430;28;20042;-80
2023/05/12 11:01:59;;;;;;;10.55;9.48;;;23.30;70.70;;;;;;4998378;28;20152;-81
2023/05/12 11:04:46;;;;;;;12.07;10.98;;;23.20;70.50;;;;;;4998385;28;20115;-80
2023/05/12 11:07:14;;;;;;;12.40;11.15;;;23.10;68.00;;;;;;4998430;28;20042;-81
2023/05/12 11:09:45;;;;;;;12.07;10.82;;;22.90;67.80;;;;;;4997907;28;20042;-80
2023/05/12 11:12:12;;;;;;;11.50;10.50;;;22.70;68.00;;;;;;4998335;28;20033;-80
2023/05/12 11:14:40;;;;;;;13.52;12.10;;;22.70;68.80;;;;;;5014172;28;20359;-79
2023/05/12 11:17:05;;;;;;;14.43;12.95;;;22.80;69.70;;;;;;5014011;28;20555;-79
2023/05/12 11:19:32;;;;;;;13.00;11.70;;;23.00;70.30;;;;;;4997501;28;20121;-80
2023/05/12 11:22:11;;;;;;;15.02;13.43;;;23.20;69.60;;;;;;4981272;28;20057;-80
2023/05/12 11:24:38;;;;;;;13.98;12.20;;;23.40;68.90;;;;;;4997853;28;20041;-80
2023/05/12 11:27:06;;;;;;;15.68;13.25;;;23.40;67.30;;;;;;4997301;28;20127;-80
2023/05/12 11:29:32;;;;;;;12.57;11.27;;;23.40;67.50;;;;;;5013632;28;20184;-81
2023/05/12 11:32:01;;;;;;;14.38;13.00;;;23.50;67.50;;;;;;5013487;28;20076;-80
2023/05/12 11:34:27;;;;;;;13.05;11.68;;;23.40;67.50;;;;;;5013889;28;20038;-81
2023/05/12 11:36:55;;;;;;;13.05;10.77;;;23.40;66.00;;;;;;4980947;28;20402;-80
2023/05/12 11:39:31;;;;;;;11.43;10.18;;;23.50;67.20;;;;;;4997182;28;20048;-81
2023/05/12 11:42:05;;;;;;;11.65;10.48;;;23.80;67.00;;;;;;4981752;28;20034;-81
2023/05/12 11:44:30;;;;;;;;;;;23.90;64.00;;;;;;5013765;28;20038;-82
2023/05/12 11:47:12;;;;;;;14.15;12.65;;;23.90;64.60;;;;;;5013501;28;19917;-82
2023/05/12 11:49:48;;;;;;;14.38;12.88;;;23.90;65.10;;;;;;4997043;28;20037;-81
2023/05/12 11:52:14;;;;;;;15.07;13.68;;;24.00;66.50;;;;;;5013635;28;20054;-81
2023/05/12 11:54:48;;;;;;;13.38;12.02;;;24.20;66.80;;;;;;4996901;28;20490;-80
2023/05/12 11:57:27;;;;;;;14.13;11.93;;;24.40;66.20;;;;;;5013327;28;20082;-81
2023/05/12 12:00:11;;;;;;;14.93;13.32;;;24.50;65.90;;;;;;5013511;28;20038;-81
2023/05/12 12:02:38;;;;;;;12.57;11.35;;;24.50;64.80;;;;;;4996708;28;20042;-81
2023/05/12 12:05:14;;;;;;;9.85;8.85;;;24.50;64.20;;;;;;4981377;28;20046;-81
2023/05/12 12:07:41;;;;;;;8.55;7.65;;;24.70;64.50;;;;;;5013233;28;20120;-82
2023/05/12 12:10:14;;;;;;;9.95;8.95;;;24.90;63.40;;;;;;4996778;28;20033;-81
2023/05/12 12:12:41;;;;;;;10.38;9.45;;;25.00;62.40;;;;;;4996879;28;20045;-82
2023/05/12 12:15:08;;;;;;;10.55;9.55;;;25.00;60.70;;;;;;4997026;28;20034;-81
2023/05/12 12:17:33;;;;;;;9.43;8.18;;;25.00;60.70;;;;;;5012999;28;20050;-81
2023/05/12 12:19:59;;;;;;;8.30;6.72;;;25.00;60.50;;;;;;5012685;28;20049;-82
2023/05/12 12:22:25;;;;;;;11.35;10.15;;;25.10;59.10;;;;;;5012720;28;20069;-81
2023/05/12 12:24:51;;;;;;;12.25;10.35;;;25.20;60.50;;;;;;4996749;28;20041;-82
2023/05/12 12:27:17;;;;;;;8.55;7.57;;;25.30;61.40;;;;;;5012831;28;20465;-81
2023/05/12 12:29:43;;;;;;;9.20;7.15;;;25.40;59.80;;;;;;5012865;28;20038;-81
2023/05/12 12:32:09;;;;;;;13.38;8.35;;;25.40;59.40;;;;;;4996281;28;20080;-81
2023/05/12 12:34:35;;;;;;;14.32;11.25;;;25.60;59.80;;;;;;5012838;28;20042;-81